createdAt,value
2018-12-12T00:05:04.420Z,4.00
2018-12-12T00:10:12.720Z,3.37
2018-12-12T00:15:19.363Z,3.97
2018-12-12T00:20:23.389Z,5.87
2018-12-12T00:25:27.492Z,6.10
2018-12-12T00:30:31.581Z,5.43
2018-12-12T00:35:35.684Z,6.33
2018-12-12T00:40:39.796Z,6.00
2018-12-12T00:45:43.913Z,6.10
2018-12-12T00:50:48.139Z,4.00
2018-12-12T00:55:52.317Z,2.00
2018-12-12T01:00:56.407Z,6.57
2018-12-12T01:06:00.498Z,4.60
2018-12-12T01:12:08.714Z,5.03
2018-12-12T01:17:12.967Z,6.67
2018-12-12T01:22:17.079Z,8.63
2018-12-12T01:27:21.169Z,3.97
2018-12-12T01:32:25.261Z,7.13
2018-12-12T01:37:29.051Z,5.37
2018-12-12T01:42:33.063Z,5.63
2018-12-12T01:47:36.834Z,4.53
2018-12-12T01:52:40.952Z,6.67
2018-12-12T01:57:45.043Z,6.37
2018-12-12T02:02:49.351Z,2.77
2018-12-12T02:07:53.658Z,6.67
2018-12-12T02:13:09.507Z,4.90
2018-12-12T02:18:13.612Z,6.70
2018-12-12T02:23:17.400Z,1.97
2018-12-12T02:28:21.171Z,2.17
2018-12-12T02:33:25.179Z,5.93
2018-12-12T02:38:29.277Z,5.10
2018-12-12T02:43:33.056Z,4.60
2018-12-12T02:48:37.116Z,3.30
2018-12-12T02:53:41.203Z,6.07
2018-12-12T02:58:44.982Z,5.73
2018-12-12T03:03:48.995Z,5.60
2018-12-12T03:08:53.087Z,6.40
2018-12-12T03:13:57.401Z,6.40
2018-12-12T03:19:01.674Z,5.23
2018-12-12T03:24:05.493Z,5.27
2018-12-12T03:29:09.487Z,7.93
2018-12-12T03:34:13.572Z,6.57
2018-12-12T03:39:17.798Z,8.07
2018-12-12T03:44:21.990Z,7.00
2018-12-12T03:49:25.782Z,6.03
2018-12-12T03:54:30.115Z,6.80
2018-12-12T03:59:34.213Z,3.53
2018-12-12T04:04:38.302Z,6.33
2018-12-12T04:09:42.096Z,6.10
2018-12-12T04:14:46.127Z,8.47
2018-12-12T04:19:50.308Z,7.70
2018-12-12T04:24:54.548Z,9.00
2018-12-12T04:29:58.651Z,9.20
2018-12-12T04:35:02.850Z,6.70
2018-12-12T04:40:07.388Z,9.07
2018-12-12T04:45:11.511Z,9.03
2018-12-12T04:50:15.612Z,2.43
2018-12-12T04:55:19.720Z,9.13
2018-12-12T05:00:23.843Z,8.30
2018-12-12T05:05:28.539Z,7.70
2018-12-12T05:10:32.500Z,8.63
2018-12-12T05:15:36.485Z,6.90
2018-12-12T05:20:40.539Z,5.43
2018-12-12T05:25:44.327Z,4.30
2018-12-12T05:30:48.938Z,8.10
2018-12-12T05:35:52.735Z,5.63
2018-12-12T05:40:56.774Z,9.10
2018-12-12T05:46:01.302Z,8.23
2018-12-12T05:51:05.108Z,8.23
2018-12-12T05:56:14.124Z,8.43
2018-12-12T06:01:15.264Z,6.43
2018-12-12T06:06:19.411Z,7.27
2018-12-12T06:11:23.542Z,9.53
2018-12-12T06:16:29.170Z,9.43
2018-12-12T06:21:33.508Z,8.97
2018-12-12T06:26:37.761Z,9.00
2018-12-12T06:31:41.993Z,10.27
2018-12-12T06:36:46.092Z,11.67
2018-12-12T06:41:50.208Z,10.00
2018-12-12T06:46:54.320Z,11.43
2018-12-12T06:51:58.421Z,12.00
2018-12-12T06:57:02.552Z,11.20
2018-12-12T07:02:06.664Z,10.50
2018-12-12T07:07:11.110Z,10.07
2018-12-12T07:12:15.244Z,8.77
2018-12-12T07:17:19.347Z,10.37
2018-12-12T07:22:23.446Z,9.53
2018-12-12T07:27:27.560Z,9.37
2018-12-12T07:32:31.679Z,9.40
2018-12-12T07:37:35.896Z,10.27
2018-12-12T07:42:40.033Z,8.67
2018-12-12T07:47:49.916Z,10.23
2018-12-12T07:53:11.752Z,9.60
2018-12-12T07:58:15.911Z,10.10
2018-12-12T08:03:20.031Z,9.57
2018-12-12T08:08:24.333Z,8.60
2018-12-12T08:13:28.771Z,8.20
2018-12-12T08:18:32.907Z,14.60
2018-12-12T08:23:39.028Z,14.97
2018-12-12T08:28:45.925Z,8.70
2018-12-12T08:33:50.013Z,6.47
2018-12-12T08:38:55.513Z,8.43
2018-12-12T08:44:02.643Z,7.90
2018-12-12T08:49:08.632Z,7.60
2018-12-12T08:54:14.416Z,6.77
2018-12-12T08:59:19.691Z,6.67
2018-12-12T09:04:26.295Z,6.63
2018-12-12T09:09:32.619Z,7.03
2018-12-12T09:14:40.202Z,7.30
2018-12-12T09:19:45.688Z,7.67
2018-12-12T09:24:52.347Z,7.03
2018-12-12T09:29:58.480Z,5.63
2018-12-12T09:35:06.827Z,4.70
2018-12-12T09:40:13.438Z,4.57
2018-12-12T09:45:21.843Z,4.53
2018-12-12T09:50:28.363Z,4.90
2018-12-12T09:55:36.397Z,3.60
2018-12-12T10:00:40.988Z,4.17
2018-12-12T10:05:45.308Z,3.63
2018-12-12T10:10:49.525Z,3.17
2018-12-12T10:16:00.502Z,3.43
2018-12-12T10:21:04.857Z,2.93
2018-12-12T10:26:09.269Z,3.17
2018-12-12T10:31:13.619Z,3.40
2018-12-12T10:36:17.720Z,3.50
2018-12-12T10:41:22.075Z,2.80
2018-12-12T10:46:26.441Z,3.90
2018-12-12T10:51:30.740Z,3.80
2018-12-12T10:56:35.167Z,2.90
2018-12-12T11:01:44.922Z,3.20
2018-12-12T11:06:49.287Z,3.20
2018-12-12T11:11:53.536Z,3.07
2018-12-12T11:16:57.651Z,3.23
2018-12-12T11:22:01.903Z,3.13
2018-12-12T11:27:06.175Z,3.33
2018-12-12T11:32:10.276Z,3.27
2018-12-12T11:37:14.380Z,2.93
2018-12-12T11:42:18.472Z,2.97
2018-12-12T11:47:22.587Z,3.10
2018-12-12T11:52:26.682Z,3.20
2018-12-12T11:57:31.534Z,3.00
2018-12-12T12:02:35.823Z,3.40
2018-12-12T12:07:39.895Z,3.40
2018-12-12T12:12:44.033Z,3.23
2018-12-12T12:17:50.138Z,4.17
2018-12-12T12:22:53.923Z,3.17
2018-12-12T12:27:58.538Z,2.97
2018-12-12T12:33:02.343Z,2.47
2018-12-12T12:38:06.269Z,2.97
2018-12-12T12:43:10.275Z,2.87
2018-12-12T12:48:14.086Z,2.60
2018-12-12T12:53:17.802Z,2.70
2018-12-12T12:58:21.498Z,2.57
2018-12-12T13:03:25.426Z,2.80
2018-12-12T13:08:29.366Z,2.53
2018-12-12T13:13:33.165Z,3.13
2018-12-12T13:18:36.932Z,3.50
2018-12-12T13:23:40.963Z,2.53
2018-12-12T13:28:45.006Z,3.63
2018-12-12T13:33:48.900Z,3.47
2018-12-12T13:38:52.592Z,3.60
2018-12-12T13:43:56.617Z,3.37
2018-12-12T13:49:00.312Z,5.00
2018-12-12T13:54:04.523Z,4.70
2018-12-12T13:59:08.256Z,3.87
2018-12-12T14:04:12.619Z,3.67
2018-12-12T14:09:16.567Z,3.70
2018-12-12T14:14:20.504Z,4.23
2018-12-12T14:19:24.501Z,3.77
2018-12-12T14:24:28.406Z,4.00
2018-12-12T14:29:32.386Z,3.63
2018-12-12T14:34:36.116Z,3.47
2018-12-12T14:39:39.882Z,4.93
2018-12-12T14:44:43.891Z,5.47
2018-12-12T14:49:48.098Z,5.53
2018-12-12T14:54:52.149Z,4.90
2018-12-12T14:59:55.861Z,4.53
2018-12-12T15:04:59.558Z,3.40
2018-12-12T15:10:03.920Z,4.47
2018-12-12T15:15:08.506Z,4.17
2018-12-12T15:20:12.524Z,4.33
2018-12-12T15:25:16.915Z,4.17
2018-12-12T15:30:21.209Z,3.43
2018-12-12T15:35:25.423Z,2.90
2018-12-12T15:40:29.171Z,3.90
2018-12-12T15:45:32.885Z,5.00
2018-12-12T15:50:36.584Z,4.00
2018-12-12T15:55:40.730Z,4.03
2018-12-12T16:00:45.466Z,4.20
2018-12-12T16:05:51.066Z,4.50
2018-12-12T16:10:55.316Z,5.90
2018-12-12T16:15:59.117Z,5.20
2018-12-12T16:21:03.415Z,4.03
2018-12-12T16:26:07.754Z,4.37
2018-12-12T16:31:11.950Z,4.13
2018-12-12T16:36:17.137Z,4.10
2018-12-12T16:41:21.471Z,4.83
2018-12-12T16:46:25.417Z,4.40
2018-12-12T16:51:29.751Z,4.20
2018-12-12T16:56:34.032Z,3.70
2018-12-12T17:01:39.055Z,3.60
2018-12-12T17:06:42.835Z,3.93
2018-12-12T17:11:48.346Z,4.43
2018-12-12T17:16:52.507Z,4.70
2018-12-12T17:21:57.152Z,4.30
2018-12-12T17:27:02.091Z,5.30
2018-12-12T17:32:07.003Z,5.93
2018-12-12T17:37:10.681Z,6.53
2018-12-12T17:42:15.576Z,6.70
2018-12-12T17:47:20.739Z,6.53
2018-12-12T17:52:24.886Z,7.60
2018-12-12T17:57:30.873Z,9.67
2018-12-12T18:02:34.906Z,9.13
2018-12-12T18:07:44.630Z,7.23
2018-12-12T18:12:49.198Z,5.83
2018-12-12T18:17:55.196Z,4.00
2018-12-12T18:22:59.045Z,4.33
2018-12-12T18:28:04.812Z,5.33
2018-12-12T18:33:09.115Z,6.03
2018-12-12T18:38:34.726Z,5.67
2018-12-12T18:43:39.148Z,4.63
2018-12-12T18:48:43.002Z,3.70
2018-12-12T18:53:49.059Z,3.87
2018-12-12T18:58:54.866Z,3.47
2018-12-12T19:03:58.895Z,3.90
2018-12-12T19:09:03.763Z,4.10
2018-12-12T19:14:09.952Z,4.33
2018-12-12T19:19:14.154Z,4.47
2018-12-12T19:24:18.855Z,4.43
2018-12-12T19:29:23.441Z,5.03
2018-12-12T19:34:28.112Z,4.20
2018-12-12T19:39:31.802Z,4.10
2018-12-12T19:44:35.816Z,5.93
2018-12-12T19:49:40.447Z,4.33
2018-12-12T19:54:44.726Z,4.43
2018-12-12T19:59:49.329Z,4.13
2018-12-12T20:04:53.383Z,4.30
2018-12-12T20:09:58.037Z,4.13
2018-12-12T20:15:02.355Z,5.03
2018-12-12T20:20:06.636Z,5.47
2018-12-12T20:25:10.485Z,4.47
2018-12-12T20:30:14.671Z,4.33
2018-12-12T20:35:19.199Z,8.30
2018-12-12T20:40:23.906Z,6.23
2018-12-12T20:45:29.079Z,5.63
2018-12-12T20:50:33.975Z,7.47
2018-12-12T20:55:38.387Z,7.00
2018-12-12T21:00:44.178Z,6.73
2018-12-12T21:05:54.373Z,7.50
2018-12-12T21:10:57.751Z,6.67
2018-12-12T21:16:02.701Z,5.90
2018-12-12T21:21:07.063Z,6.93
2018-12-12T21:26:13.397Z,6.70
2018-12-12T21:31:17.469Z,5.00
2018-12-12T21:36:21.323Z,5.33
2018-12-12T21:41:26.411Z,4.77
2018-12-12T21:46:30.527Z,4.70
2018-12-12T21:51:34.587Z,5.00
2018-12-12T21:56:39.221Z,4.80
2018-12-12T22:01:43.397Z,5.10
2018-12-12T22:06:47.347Z,5.37
2018-12-12T22:11:51.395Z,5.17
2018-12-12T22:16:55.377Z,5.27
2018-12-12T22:22:00.491Z,5.87
2018-12-12T22:27:04.437Z,4.67
2018-12-12T22:32:08.703Z,5.47
2018-12-12T22:37:12.819Z,5.53
2018-12-12T22:42:16.522Z,5.23
2018-12-12T22:47:21.286Z,5.67
2018-12-12T22:52:25.488Z,5.53
2018-12-12T22:57:29.263Z,4.97
2018-12-12T23:02:34.977Z,5.23
2018-12-12T23:07:39.871Z,6.00
2018-12-12T23:12:43.767Z,5.80
2018-12-12T23:17:48.055Z,5.80
2018-12-12T23:22:52.171Z,4.97
2018-12-12T23:27:56.624Z,5.23
2018-12-12T23:33:01.254Z,5.53
2018-12-12T23:38:05.606Z,5.43
2018-12-12T23:43:09.481Z,5.93
2018-12-12T23:48:13.507Z,5.17
2018-12-12T23:53:17.607Z,4.53
2018-12-12T23:58:21.820Z,5.27
